KELK/ELK METAR and TAF weather

Enter ICAO airport designator
Station Type Date Time Source
KELK METAR 2018/12/13 15:55 UTC NOAA

KELK 131555Z AUTO 36027G37KT 10SM SCT022 OVC049 06/00 A2987 RMK AO2 T00580004


Station Type Date Time Source
KELK Decoded METAR 2018/12/13 15:55 UTC NOAA

Station name not available
Dec 13, 2018 - 10:55 AM EST / 2018.12.13 1555 UTC
Wind: from the N (360 degrees) at 31 MPH (27 KT) gusting to 43 MPH (37 KT):0
Visibility: 10 mile(s):0
Sky conditions: overcast
Temperature: 42.4 F (5.8 C)
Dew Point: 32.7 F (0.4 C)
Relative Humidity: 68%
Pressure (altimeter): 29.87 in. Hg (1011 hPa)
ob: KELK 131555Z AUTO 36027G37KT 10SM SCT022 OVC049 06/00 A2987 RMK AO2 T00580004
cycle: 16

Station Type Date Time Source
KELK TAF UTC NOAA

Error!


Example: see airport list